OPA Logo
 
ASOS:
At:2020.04.09 0415 UTC
Wind:310° @ 6KT
Viz: 10 mile(s)
Sky: clear
Temp: 51 F (11 C)
DewP: 24 F (-4 C)
RH: 34%
Baro: 30.16 in.
ob: KBDN 090415Z AUTO 31006KT 10SM CLR 11/M04 A3016 RMK AO2

ASOS: KRDM
At:2020.04.09 0356 UTC
Wind:330° @ 5KT
Viz: 10 mile(s)
Sky: clear
Temp: 53.1 F (11.7 C)
DewP: 26.1 F (-3.3 C)
RH: 34%
Baro: 30.16 in.
ob: KRDM 090356Z AUTO 33005KT 10SM CLR 12/M03 A3016 RMK AO2 SLP211 T01171033
Apache-SSL Logo

Valid HTML 4.01!

Local FAA Notices



15 May 2002 - FAA APPROVES 4 new antennas near St. Charles Hospital


2 May 2002, FAA Northwest Mountain Region Letter to Airmen 02-01

VFR Practice Approaches: Page 1, Page 2, Page 3, Page 4.


11 Apr 2002 - FAA Public Notice, 4 new antennas near St. Charles Hospital



Web page by: gem@rellim.com